sensor_id;sensor_type;location;lat;lon;timestamp;P1;durP1;ratioP1;P2;durP2;ratioP2
61435;SDS011;47304;47.456;19.160;2023-05-07T00:02:11;16.40;;;12.60;;
61435;SDS011;47304;47.456;19.160;2023-05-07T00:04:38;21.60;;;15.30;;
61435;SDS011;47304;47.456;19.160;2023-05-07T00:07:05;17.10;;;13.30;;
61435;SDS011;47304;47.456;19.160;2023-05-07T00:09:31;17.10;;;11.90;;
61435;SDS011;47304;47.456;19.160;2023-05-07T00:11:58;17.30;;;13.00;;
61435;SDS011;47304;47.456;19.160;2023-05-07T00:14:24;17.00;;;12.30;;
61435;SDS011;47304;47.456;19.160;2023-05-07T00:16:50;17.90;;;12.50;;
61435;SDS011;47304;47.456;19.160;2023-05-07T00:19:17;18.30;;;12.70;;
61435;SDS011;47304;47.456;19.160;2023-05-07T00:21:43;17.90;;;12.30;;
61435;SDS011;47304;47.456;19.160;2023-05-07T00:24:10;19.00;;;13.50;;
61435;SDS011;47304;47.456;19.160;2023-05-07T00:26:36;18.00;;;13.30;;
61435;SDS011;47304;47.456;19.160;2023-05-07T00:29:03;18.80;;;12.60;;
61435;SDS011;47304;47.456;19.160;2023-05-07T00:31:29;20.20;;;13.60;;
61435;SDS011;47304;47.456;19.160;2023-05-07T00:33:56;17.40;;;12.50;;
61435;SDS011;47304;47.456;19.160;2023-05-07T00:36:22;18.50;;;13.00;;
61435;SDS011;47304;47.456;19.160;2023-05-07T00:38:49;19.80;;;13.80;;
61435;SDS011;47304;47.456;19.160;2023-05-07T00:41:15;18.50;;;13.40;;
61435;SDS011;47304;47.456;19.160;2023-05-07T00:43:42;20.00;;;13.00;;
61435;SDS011;47304;47.456;19.160;2023-05-07T00:46:08;18.40;;;13.20;;
61435;SDS011;47304;47.456;19.160;2023-05-07T00:48:35;18.00;;;12.80;;
61435;SDS011;47304;47.456;19.160;2023-05-07T00:51:02;17.70;;;12.40;;
61435;SDS011;47304;47.456;19.160;2023-05-07T00:53:29;19.00;;;13.10;;
61435;SDS011;47304;47.456;19.160;2023-05-07T00:55:56;17.50;;;13.20;;
61435;SDS011;47304;47.456;19.160;2023-05-07T00:58:23;17.00;;;12.10;;
61435;SDS011;47304;47.456;19.160;2023-05-07T01:00:50;20.30;;;13.00;;
61435;SDS011;47304;47.456;19.160;2023-05-07T01:03:16;22.40;;;13.60;;
61435;SDS011;47304;47.456;19.160;2023-05-07T01:05:43;18.60;;;12.70;;
61435;SDS011;47304;47.456;19.160;2023-05-07T01:08:12;20.10;;;13.40;;
61435;SDS011;47304;47.456;19.160;2023-05-07T01:10:40;17.60;;;13.00;;
61435;SDS011;47304;47.456;19.160;2023-05-07T01:13:07;15.70;;;11.90;;
61435;SDS011;47304;47.456;19.160;2023-05-07T01:15:34;18.10;;;12.80;;
61435;SDS011;47304;47.456;19.160;2023-05-07T01:18:00;17.20;;;12.30;;
61435;SDS011;47304;47.456;19.160;2023-05-07T01:20:27;18.30;;;13.00;;
61435;SDS011;47304;47.456;19.160;2023-05-07T01:22:54;18.60;;;12.70;;
61435;SDS011;47304;47.456;19.160;2023-05-07T01:25:21;20.40;;;12.60;;
61435;SDS011;47304;47.456;19.160;2023-05-07T01:27:48;19.40;;;12.90;;
61435;SDS011;47304;47.456;19.160;2023-05-07T01:30:14;18.10;;;12.70;;
61435;SDS011;47304;47.456;19.160;2023-05-07T01:35:22;16.90;;;12.30;;
61435;SDS011;47304;47.456;19.160;2023-05-07T01:37:53;18.70;;;12.70;;
61435;SDS011;47304;47.456;19.160;2023-05-07T01:40:20;17.10;;;12.10;;
61435;SDS011;47304;47.456;19.160;2023-05-07T01:42:47;17.50;;;12.20;;
61435;SDS011;47304;47.456;19.160;2023-05-07T01:45:14;18.20;;;12.70;;
61435;SDS011;47304;47.456;19.160;2023-05-07T01:47:40;17.00;;;12.50;;
61435;SDS011;47304;47.456;19.160;2023-05-07T01:50:08;17.00;;;12.20;;
61435;SDS011;47304;47.456;19.160;2023-05-07T01:52:38;19.30;;;12.60;;
61435;SDS011;47304;47.456;19.160;2023-05-07T01:55:05;19.80;;;13.80;;
61435;SDS011;47304;47.456;19.160;2023-05-07T01:57:32;17.90;;;12.60;;
61435;SDS011;47304;47.456;19.160;2023-05-07T01:59:59;17.00;;;11.50;;
61435;SDS011;47304;47.456;19.160;2023-05-07T02:02:25;18.80;;;13.30;;
61435;SDS011;47304;47.456;19.160;2023-05-07T02:04:52;19.90;;;13.50;;
61435;SDS011;47304;47.456;19.160;2023-05-07T02:07:19;18.20;;;12.80;;
61435;SDS011;47304;47.456;19.160;2023-05-07T02:09:45;17.70;;;13.30;;
61435;SDS011;47304;47.456;19.160;2023-05-07T02:12:12;17.80;;;12.40;;
61435;SDS011;47304;47.456;19.160;2023-05-07T02:14:38;18.80;;;12.90;;
61435;SDS011;47304;47.456;19.160;2023-05-07T02:17:05;20.90;;;12.10;;
61435;SDS011;47304;47.456;19.160;2023-05-07T02:19:31;19.90;;;12.00;;
61435;SDS011;47304;47.456;19.160;2023-05-07T02:21:58;17.60;;;12.40;;
61435;SDS011;47304;47.456;19.160;2023-05-07T02:24:24;17.00;;;11.90;;
61435;SDS011;47304;47.456;19.160;2023-05-07T02:26:50;19.20;;;12.60;;
61435;SDS011;47304;47.456;19.160;2023-05-07T02:29:17;16.40;;;11.80;;
61435;SDS011;47304;47.456;19.160;2023-05-07T02:31:43;18.90;;;12.30;;
61435;SDS011;47304;47.456;19.160;2023-05-07T02:34:10;19.60;;;12.00;;
61435;SDS011;47304;47.456;19.160;2023-05-07T02:36:36;17.90;;;11.80;;
61435;SDS011;47304;47.456;19.160;2023-05-07T02:39:03;16.60;;;11.60;;
61435;SDS011;47304;47.456;19.160;2023-05-07T02:41:29;17.30;;;12.10;;
61435;SDS011;47304;47.456;19.160;2023-05-07T02:43:56;18.60;;;12.40;;
61435;SDS011;47304;47.456;19.160;2023-05-07T02:46:22;17.10;;;11.60;;
61435;SDS011;47304;47.456;19.160;2023-05-07T02:48:49;16.50;;;11.50;;
61435;SDS011;47304;47.456;19.160;2023-05-07T02:51:17;16.70;;;11.80;;
61435;SDS011;47304;47.456;19.160;2023-05-07T02:53:47;18.20;;;12.10;;
61435;SDS011;47304;47.456;19.160;2023-05-07T02:56:14;16.20;;;11.60;;
61435;SDS011;47304;47.456;19.160;2023-05-07T02:58:41;17.40;;;12.20;;
61435;SDS011;47304;47.456;19.160;2023-05-07T03:01:07;18.30;;;12.30;;
61435;SDS011;47304;47.456;19.160;2023-05-07T03:03:35;16.70;;;11.30;;
61435;SDS011;47304;47.456;19.160;2023-05-07T03:06:01;17.90;;;12.60;;
61435;SDS011;47304;47.456;19.160;2023-05-07T03:08:28;18.60;;;12.40;;
61435;SDS011;47304;47.456;19.160;2023-05-07T03:10:54;17.70;;;12.20;;
61435;SDS011;47304;47.456;19.160;2023-05-07T03:13:21;17.40;;;12.10;;
61435;SDS011;47304;47.456;19.160;2023-05-07T03:15:48;18.60;;;11.90;;
61435;SDS011;47304;47.456;19.160;2023-05-07T03:18:14;18.20;;;12.70;;
61435;SDS011;47304;47.456;19.160;2023-05-07T03:20:41;18.90;;;12.40;;
61435;SDS011;47304;47.456;19.160;2023-05-07T03:23:08;18.50;;;12.90;;
61435;SDS011;47304;47.456;19.160;2023-05-07T03:25:34;18.60;;;13.40;;
61435;SDS011;47304;47.456;19.160;2023-05-07T03:28:00;18.50;;;13.00;;
61435;SDS011;47304;47.456;19.160;2023-05-07T03:30:27;18.30;;;12.60;;
61435;SDS011;47304;47.456;19.160;2023-05-07T03:32:53;17.60;;;13.00;;
61435;SDS011;47304;47.456;19.160;2023-05-07T03:35:20;20.80;;;13.10;;
61435;SDS011;47304;47.456;19.160;2023-05-07T03:37:46;20.60;;;13.50;;
61435;SDS011;47304;47.456;19.160;2023-05-07T03:40:13;21.30;;;13.50;;
61435;SDS011;47304;47.456;19.160;2023-05-07T03:42:40;19.40;;;14.60;;
61435;SDS011;47304;47.456;19.160;2023-05-07T03:45:07;21.90;;;14.20;;
61435;SDS011;47304;47.456;19.160;2023-05-07T03:47:34;21.40;;;15.10;;
61435;SDS011;47304;47.456;19.160;2023-05-07T03:50:00;20.10;;;14.30;;
61435;SDS011;47304;47.456;19.160;2023-05-07T03:52:27;19.80;;;14.00;;
61435;SDS011;47304;47.456;19.160;2023-05-07T03:54:53;22.60;;;14.60;;
61435;SDS011;47304;47.456;19.160;2023-05-07T03:57:20;20.90;;;15.50;;
61435;SDS011;47304;47.456;19.160;2023-05-07T03:59:47;22.70;;;15.10;;
61435;SDS011;47304;47.456;19.160;2023-05-07T04:02:13;21.40;;;14.40;;
61435;SDS011;47304;47.456;19.160;2023-05-07T04:04:41;21.00;;;14.10;;
61435;SDS011;47304;47.456;19.160;2023-05-07T04:07:08;23.50;;;15.50;;
61435;SDS011;47304;47.456;19.160;2023-05-07T04:09:35;22.20;;;14.40;;
61435;SDS011;47304;47.456;19.160;2023-05-07T04:12:01;21.50;;;16.10;;
61435;SDS011;47304;47.456;19.160;2023-05-07T04:14:28;22.00;;;15.70;;
61435;SDS011;47304;47.456;19.160;2023-05-07T04:16:54;24.70;;;16.20;;
61435;SDS011;47304;47.456;19.160;2023-05-07T04:19:21;24.30;;;16.60;;
61435;SDS011;47304;47.456;19.160;2023-05-07T04:21:47;22.00;;;16.20;;
61435;SDS011;47304;47.456;19.160;2023-05-07T04:24:14;22.00;;;15.50;;
61435;SDS011;47304;47.456;19.160;2023-05-07T04:26:40;19.80;;;15.00;;
61435;SDS011;47304;47.456;19.160;2023-05-07T04:29:07;21.50;;;15.00;;
61435;SDS011;47304;47.456;19.160;2023-05-07T04:31:33;22.50;;;15.90;;
61435;SDS011;47304;47.456;19.160;2023-05-07T04:34:00;21.10;;;16.00;;
61435;SDS011;47304;47.456;19.160;2023-05-07T04:36:26;24.00;;;16.10;;
61435;SDS011;47304;47.456;19.160;2023-05-07T04:38:53;22.80;;;16.20;;
61435;SDS011;47304;47.456;19.160;2023-05-07T04:41:19;22.40;;;16.30;;
61435;SDS011;47304;47.456;19.160;2023-05-07T04:43:46;23.40;;;16.70;;
61435;SDS011;47304;47.456;19.160;2023-05-07T04:46:12;23.90;;;17.70;;
61435;SDS011;47304;47.456;19.160;2023-05-07T04:48:39;25.20;;;17.60;;
61435;SDS011;47304;47.456;19.160;2023-05-07T04:51:05;23.00;;;16.70;;
61435;SDS011;47304;47.456;19.160;2023-05-07T04:53:32;22.30;;;16.50;;
61435;SDS011;47304;47.456;19.160;2023-05-07T04:55:58;22.20;;;16.00;;
61435;SDS011;47304;47.456;19.160;2023-05-07T04:58:25;19.00;;;14.40;;
61435;SDS011;47304;47.456;19.160;2023-05-07T05:00:51;22.00;;;14.80;;
61435;SDS011;47304;47.456;19.160;2023-05-07T05:03:18;21.10;;;13.80;;
61435;SDS011;47304;47.456;19.160;2023-05-07T05:05:45;20.60;;;14.70;;
61435;SDS011;47304;47.456;19.160;2023-05-07T05:08:11;21.20;;;13.50;;
61435;SDS011;47304;47.456;19.160;2023-05-07T05:10:38;18.60;;;13.10;;
61435;SDS011;47304;47.456;19.160;2023-05-07T05:13:04;17.30;;;12.10;;
61435;SDS011;47304;47.456;19.160;2023-05-07T05:15:30;18.00;;;11.90;;
61435;SDS011;47304;47.456;19.160;2023-05-07T05:17:59;17.90;;;12.60;;
61435;SDS011;47304;47.456;19.160;2023-05-07T05:20:25;17.80;;;12.80;;
61435;SDS011;47304;47.456;19.160;2023-05-07T05:22:52;19.00;;;12.30;;
61435;SDS011;47304;47.456;19.160;2023-05-07T05:25:19;17.50;;;13.00;;
61435;SDS011;47304;47.456;19.160;2023-05-07T05:27:45;17.00;;;11.60;;
61435;SDS011;47304;47.456;19.160;2023-05-07T05:30:12;16.70;;;12.60;;
61435;SDS011;47304;47.456;19.160;2023-05-07T05:32:39;18.20;;;13.20;;
61435;SDS011;47304;47.456;19.160;2023-05-07T05:35:05;18.60;;;13.20;;
61435;SDS011;47304;47.456;19.160;2023-05-07T05:37:32;20.30;;;13.00;;
61435;SDS011;47304;47.456;19.160;2023-05-07T05:39:58;20.40;;;13.60;;
61435;SDS011;47304;47.456;19.160;2023-05-07T05:42:25;19.00;;;13.50;;
61435;SDS011;47304;47.456;19.160;2023-05-07T05:44:51;19.70;;;13.10;;
61435;SDS011;47304;47.456;19.160;2023-05-07T05:47:18;18.00;;;13.70;;
61435;SDS011;47304;47.456;19.160;2023-05-07T05:49:44;20.00;;;13.80;;
61435;SDS011;47304;47.456;19.160;2023-05-07T05:52:11;19.30;;;13.20;;
61435;SDS011;47304;47.456;19.160;2023-05-07T05:54:38;15.90;;;10.80;;
61435;SDS011;47304;47.456;19.160;2023-05-07T05:57:05;16.60;;;11.10;;
61435;SDS011;47304;47.456;19.160;2023-05-07T05:59:31;15.80;;;11.20;;
61435;SDS011;47304;47.456;19.160;2023-05-07T06:01:58;16.60;;;11.80;;
61435;SDS011;47304;47.456;19.160;2023-05-07T06:04:25;16.50;;;12.20;;
61435;SDS011;47304;47.456;19.160;2023-05-07T06:06:51;20.80;;;12.60;;
61435;SDS011;47304;47.456;19.160;2023-05-07T06:09:18;17.30;;;12.60;;
61435;SDS011;47304;47.456;19.160;2023-05-07T06:11:44;17.10;;;12.40;;
61435;SDS011;47304;47.456;19.160;2023-05-07T06:14:11;17.30;;;11.90;;
61435;SDS011;47304;47.456;19.160;2023-05-07T06:16:37;18.00;;;11.50;;
61435;SDS011;47304;47.456;19.160;2023-05-07T06:19:04;16.40;;;10.60;;
61435;SDS011;47304;47.456;19.160;2023-05-07T06:21:30;13.80;;;9.20;;
61435;SDS011;47304;47.456;19.160;2023-05-07T06:23:57;12.90;;;8.30;;
61435;SDS011;47304;47.456;19.160;2023-05-07T06:26:23;11.00;;;7.50;;
61435;SDS011;47304;47.456;19.160;2023-05-07T06:28:50;12.10;;;8.00;;
61435;SDS011;47304;47.456;19.160;2023-05-07T06:31:19;12.10;;;7.20;;
61435;SDS011;47304;47.456;19.160;2023-05-07T06:33:46;10.10;;;7.00;;
61435;SDS011;47304;47.456;19.160;2023-05-07T06:36:12;13.60;;;8.50;;
61435;SDS011;47304;47.456;19.160;2023-05-07T06:38:39;10.80;;;7.30;;
61435;SDS011;47304;47.456;19.160;2023-05-07T06:41:05;11.80;;;6.90;;
61435;SDS011;47304;47.456;19.160;2023-05-07T06:43:32;9.80;;;6.10;;
61435;SDS011;47304;47.456;19.160;2023-05-07T06:45:59;10.60;;;6.10;;
61435;SDS011;47304;47.456;19.160;2023-05-07T06:48:26;12.00;;;7.30;;
61435;SDS011;47304;47.456;19.160;2023-05-07T06:50:52;11.20;;;7.30;;
61435;SDS011;47304;47.456;19.160;2023-05-07T06:53:19;11.30;;;7.20;;
61435;SDS011;47304;47.456;19.160;2023-05-07T06:55:45;11.10;;;6.90;;
61435;SDS011;47304;47.456;19.160;2023-05-07T06:58:12;11.50;;;6.90;;
61435;SDS011;47304;47.456;19.160;2023-05-07T07:00:38;10.10;;;6.80;;
61435;SDS011;47304;47.456;19.160;2023-05-07T07:03:05;9.60;;;6.00;;
61435;SDS011;47304;47.456;19.160;2023-05-07T07:05:32;9.90;;;6.00;;
61435;SDS011;47304;47.456;19.160;2023-05-07T07:08:01;10.00;;;5.70;;
61435;SDS011;47304;47.456;19.160;2023-05-07T07:10:28;8.00;;;4.50;;
61435;SDS011;47304;47.456;19.160;2023-05-07T07:12:54;6.80;;;3.90;;
61435;SDS011;47304;47.456;19.160;2023-05-07T07:15:21;7.10;;;3.30;;
61435;SDS011;47304;47.456;19.160;2023-05-07T07:17:48;7.10;;;3.30;;
61435;SDS011;47304;47.456;19.160;2023-05-07T07:20:14;7.70;;;3.60;;
61435;SDS011;47304;47.456;19.160;2023-05-07T07:22:41;6.60;;;2.70;;
61435;SDS011;47304;47.456;19.160;2023-05-07T07:25:08;5.40;;;2.80;;
61435;SDS011;47304;47.456;19.160;2023-05-07T07:27:36;6.30;;;2.70;;
61435;SDS011;47304;47.456;19.160;2023-05-07T07:30:03;6.80;;;3.60;;
61435;SDS011;47304;47.456;19.160;2023-05-07T07:32:30;7.50;;;3.60;;
61435;SDS011;47304;47.456;19.160;2023-05-07T07:34:56;7.90;;;4.10;;
61435;SDS011;47304;47.456;19.160;2023-05-07T07:37:23;7.40;;;3.90;;
61435;SDS011;47304;47.456;19.160;2023-05-07T07:39:49;9.60;;;4.60;;
61435;SDS011;47304;47.456;19.160;2023-05-07T07:42:16;8.10;;;4.20;;
61435;SDS011;47304;47.456;19.160;2023-05-07T07:44:42;7.70;;;3.90;;
61435;SDS011;47304;47.456;19.160;2023-05-07T07:47:09;8.80;;;5.60;;
61435;SDS011;47304;47.456;19.160;2023-05-07T07:49:35;6.90;;;3.80;;
61435;SDS011;47304;47.456;19.160;2023-05-07T07:52:02;8.90;;;5.10;;
61435;SDS011;47304;47.456;19.160;2023-05-07T07:54:29;8.10;;;4.80;;
61435;SDS011;47304;47.456;19.160;2023-05-07T07:56:55;6.80;;;3.20;;
61435;SDS011;47304;47.456;19.160;2023-05-07T07:59:22;6.40;;;3.00;;
61435;SDS011;47304;47.456;19.160;2023-05-07T08:01:48;5.90;;;2.70;;
61435;SDS011;47304;47.456;19.160;2023-05-07T08:04:15;6.60;;;3.00;;
61435;SDS011;47304;47.456;19.160;2023-05-07T08:06:42;6.90;;;3.20;;
61435;SDS011;47304;47.456;19.160;2023-05-07T08:09:08;6.00;;;3.30;;
61435;SDS011;47304;47.456;19.160;2023-05-07T08:11:35;6.30;;;3.00;;
61435;SDS011;47304;47.456;19.160;2023-05-07T08:14:01;7.20;;;3.40;;
61435;SDS011;47304;47.456;19.160;2023-05-07T08:16:28;7.10;;;3.10;;
61435;SDS011;47304;47.456;19.160;2023-05-07T08:18:56;6.50;;;3.20;;
61435;SDS011;47304;47.456;19.160;2023-05-07T08:21:22;7.30;;;2.90;;
61435;SDS011;47304;47.456;19.160;2023-05-07T08:23:49;6.80;;;3.10;;
61435;SDS011;47304;47.456;19.160;2023-05-07T08:26:15;6.10;;;2.60;;
61435;SDS011;47304;47.456;19.160;2023-05-07T08:28:42;7.00;;;2.70;;
61435;SDS011;47304;47.456;19.160;2023-05-07T08:31:08;5.80;;;2.90;;
61435;SDS011;47304;47.456;19.160;2023-05-07T08:33:35;6.60;;;2.70;;
61435;SDS011;47304;47.456;19.160;2023-05-07T08:36:02;6.50;;;2.90;;
61435;SDS011;47304;47.456;19.160;2023-05-07T08:38:28;6.40;;;2.90;;
61435;SDS011;47304;47.456;19.160;2023-05-07T08:40:55;6.00;;;2.90;;
61435;SDS011;47304;47.456;19.160;2023-05-07T08:43:21;6.40;;;3.30;;
61435;SDS011;47304;47.456;19.160;2023-05-07T08:45:53;6.40;;;3.20;;
61435;SDS011;47304;47.456;19.160;2023-05-07T08:48:21;6.70;;;3.20;;
61435;SDS011;47304;47.456;19.160;2023-05-07T08:50:52;9.00;;;3.30;;
61435;SDS011;47304;47.456;19.160;2023-05-07T08:53:19;6.60;;;3.40;;
61435;SDS011;47304;47.456;19.160;2023-05-07T08:55:46;7.40;;;3.50;;
61435;SDS011;47304;47.456;19.160;2023-05-07T08:58:13;7.10;;;3.60;;
61435;SDS011;47304;47.456;19.160;2023-05-07T09:00:40;6.70;;;3.20;;
61435;SDS011;47304;47.456;19.160;2023-05-07T09:03:08;6.90;;;3.80;;
61435;SDS011;47304;47.456;19.160;2023-05-07T09:05:34;7.30;;;3.60;;
61435;SDS011;47304;47.456;19.160;2023-05-07T09:08:06;6.50;;;3.30;;
61435;SDS011;47304;47.456;19.160;2023-05-07T09:10:33;8.40;;;4.40;;
61435;SDS011;47304;47.456;19.160;2023-05-07T09:13:00;8.70;;;4.00;;
61435;SDS011;47304;47.456;19.160;2023-05-07T09:15:28;8.40;;;3.90;;
61435;SDS011;47304;47.456;19.160;2023-05-07T09:17:59;6.70;;;3.70;;
61435;SDS011;47304;47.456;19.160;2023-05-07T09:20:26;8.60;;;4.20;;
61435;SDS011;47304;47.456;19.160;2023-05-07T09:22:54;7.20;;;3.70;;
61435;SDS011;47304;47.456;19.160;2023-05-07T09:25:31;7.30;;;3.90;;
61435;SDS011;47304;47.456;19.160;2023-05-07T09:27:59;7.30;;;4.10;;
61435;SDS011;47304;47.456;19.160;2023-05-07T09:30:27;7.20;;;3.70;;
61435;SDS011;47304;47.456;19.160;2023-05-07T09:32:58;8.40;;;4.00;;
61435;SDS011;47304;47.456;19.160;2023-05-07T09:35:26;7.70;;;4.20;;
61435;SDS011;47304;47.456;19.160;2023-05-07T09:37:53;11.10;;;4.60;;
61435;SDS011;47304;47.456;19.160;2023-05-07T09:40:22;8.60;;;4.80;;
61435;SDS011;47304;47.456;19.160;2023-05-07T09:42:53;9.80;;;4.90;;
61435;SDS011;47304;47.456;19.160;2023-05-07T09:45:29;8.30;;;4.60;;
61435;SDS011;47304;47.456;19.160;2023-05-07T09:47:56;7.00;;;3.80;;
61435;SDS011;47304;47.456;19.160;2023-05-07T09:50:26;7.10;;;4.10;;
61435;SDS011;47304;47.456;19.160;2023-05-07T09:52:58;9.10;;;4.30;;
61435;SDS011;47304;47.456;19.160;2023-05-07T09:55:26;7.80;;;4.60;;
61435;SDS011;47304;47.456;19.160;2023-05-07T09:57:53;7.70;;;4.60;;
61435;SDS011;47304;47.456;19.160;2023-05-07T10:00:20;7.70;;;4.50;;
61435;SDS011;47304;47.456;19.160;2023-05-07T10:02:57;7.70;;;4.00;;
61435;SDS011;47304;47.456;19.160;2023-05-07T10:05:24;7.60;;;4.30;;
61435;SDS011;47304;47.456;19.160;2023-05-07T10:07:52;9.00;;;4.80;;
61435;SDS011;47304;47.456;19.160;2023-05-07T10:10:19;8.20;;;4.40;;
61435;SDS011;47304;47.456;19.160;2023-05-07T10:12:46;7.90;;;3.80;;
61435;SDS011;47304;47.456;19.160;2023-05-07T10:15:13;8.90;;;4.40;;
61435;SDS011;47304;47.456;19.160;2023-05-07T10:17:40;7.50;;;3.60;;
61435;SDS011;47304;47.456;19.160;2023-05-07T10:20:07;7.20;;;3.70;;
61435;SDS011;47304;47.456;19.160;2023-05-07T10:22:38;9.50;;;4.10;;
61435;SDS011;47304;47.456;19.160;2023-05-07T10:25:16;7.80;;;3.90;;
61435;SDS011;47304;47.456;19.160;2023-05-07T10:27:45;8.60;;;4.30;;
61435;SDS011;47304;47.456;19.160;2023-05-07T10:30:28;7.20;;;4.10;;
61435;SDS011;47304;47.456;19.160;2023-05-07T10:33:03;7.30;;;4.10;;
61435;SDS011;47304;47.456;19.160;2023-05-07T10:35:37;8.70;;;4.30;;
61435;SDS011;47304;47.456;19.160;2023-05-07T10:38:06;7.60;;;3.40;;
61435;SDS011;47304;47.456;19.160;2023-05-07T10:40:33;8.10;;;4.60;;
61435;SDS011;47304;47.456;19.160;2023-05-07T10:43:00;8.50;;;3.80;;
61435;SDS011;47304;47.456;19.160;2023-05-07T10:45:28;7.30;;;3.80;;
61435;SDS011;47304;47.456;19.160;2023-05-07T10:50:44;7.10;;;3.40;;
61435;SDS011;47304;47.456;19.160;2023-05-07T10:55:50;6.80;;;3.60;;
61435;SDS011;47304;47.456;19.160;2023-05-07T11:00:58;7.30;;;3.80;;
61435;SDS011;47304;47.456;19.160;2023-05-07T11:03:28;8.40;;;4.20;;
61435;SDS011;47304;47.456;19.160;2023-05-07T11:06:11;8.20;;;4.10;;
61435;SDS011;47304;47.456;19.160;2023-05-07T11:08:58;7.40;;;4.20;;
61435;SDS011;47304;47.456;19.160;2023-05-07T11:17:08;7.20;;;3.70;;
61435;SDS011;47304;47.456;19.160;2023-05-07T11:19:49;32.00;;;19.40;;
61435;SDS011;47304;47.456;19.160;2023-05-07T11:25:05;17.20;;;10.60;;
61435;SDS011;47304;47.456;19.160;2023-05-07T11:27:33;8.20;;;3.90;;
61435;SDS011;47304;47.456;19.160;2023-05-07T11:30:00;7.30;;;4.20;;
61435;SDS011;47304;47.456;19.160;2023-05-07T11:32:27;7.60;;;4.10;;
61435;SDS011;47304;47.456;19.160;2023-05-07T11:34:56;7.90;;;4.10;;
61435;SDS011;47304;47.456;19.160;2023-05-07T11:37:25;9.30;;;4.50;;
61435;SDS011;47304;47.456;19.160;2023-05-07T11:40:02;13.10;;;4.10;;
61435;SDS011;47304;47.456;19.160;2023-05-07T11:42:31;7.40;;;3.90;;
61435;SDS011;47304;47.456;19.160;2023-05-07T11:45:01;6.30;;;3.30;;
61435;SDS011;47304;47.456;19.160;2023-05-07T11:47:29;7.50;;;3.60;;
61435;SDS011;47304;47.456;19.160;2023-05-07T11:49:56;7.60;;;3.70;;
61435;SDS011;47304;47.456;19.160;2023-05-07T11:54:55;6.00;;;3.20;;
61435;SDS011;47304;47.456;19.160;2023-05-07T11:57:23;8.30;;;4.20;;
61435;SDS011;47304;47.456;19.160;2023-05-07T11:59:54;7.90;;;3.60;;
61435;SDS011;47304;47.456;19.160;2023-05-07T12:02:21;7.50;;;3.60;;
61435;SDS011;47304;47.456;19.160;2023-05-07T12:04:47;6.80;;;3.50;;
61435;SDS011;47304;47.456;19.160;2023-05-07T12:07:14;6.80;;;3.80;;
61435;SDS011;47304;47.456;19.160;2023-05-07T12:09:41;7.10;;;3.80;;
61435;SDS011;47304;47.456;19.160;2023-05-07T12:12:08;7.10;;;3.50;;
61435;SDS011;47304;47.456;19.160;2023-05-07T12:14:41;8.50;;;3.70;;
61435;SDS011;47304;47.456;19.160;2023-05-07T12:17:10;6.50;;;3.30;;
61435;SDS011;47304;47.456;19.160;2023-05-07T12:19:38;6.30;;;3.50;;
61435;SDS011;47304;47.456;19.160;2023-05-07T12:22:07;6.60;;;3.50;;
61435;SDS011;47304;47.456;19.160;2023-05-07T12:24:45;7.70;;;3.60;;
61435;SDS011;47304;47.456;19.160;2023-05-07T12:27:29;7.00;;;3.20;;
61435;SDS011;47304;47.456;19.160;2023-05-07T12:29:56;6.90;;;3.20;;
61435;SDS011;47304;47.456;19.160;2023-05-07T12:32:23;7.40;;;3.40;;
61435;SDS011;47304;47.456;19.160;2023-05-07T12:34:50;8.90;;;3.60;;
61435;SDS011;47304;47.456;19.160;2023-05-07T12:37:22;8.80;;;3.90;;
61435;SDS011;47304;47.456;19.160;2023-05-07T12:40:02;6.90;;;3.50;;
61435;SDS011;47304;47.456;19.160;2023-05-07T12:42:39;5.90;;;2.90;;
61435;SDS011;47304;47.456;19.160;2023-05-07T12:45:16;6.90;;;3.40;;
61435;SDS011;47304;47.456;19.160;2023-05-07T12:47:46;8.60;;;3.80;;
61435;SDS011;47304;47.456;19.160;2023-05-07T12:50:14;7.20;;;3.20;;
61435;SDS011;47304;47.456;19.160;2023-05-07T12:52:41;6.40;;;3.20;;
61435;SDS011;47304;47.456;19.160;2023-05-07T12:55:11;7.60;;;3.40;;
61435;SDS011;47304;47.456;19.160;2023-05-07T12:57:41;6.30;;;3.20;;
61435;SDS011;47304;47.456;19.160;2023-05-07T13:00:09;6.50;;;3.00;;
61435;SDS011;47304;47.456;19.160;2023-05-07T13:02:39;7.60;;;3.50;;
61435;SDS011;47304;47.456;19.160;2023-05-07T13:05:07;15.40;;;7.50;;
61435;SDS011;47304;47.456;19.160;2023-05-07T13:07:35;6.10;;;3.20;;
61435;SDS011;47304;47.456;19.160;2023-05-07T13:10:01;6.80;;;3.30;;
61435;SDS011;47304;47.456;19.160;2023-05-07T13:12:28;7.40;;;3.70;;
61435;SDS011;47304;47.456;19.160;2023-05-07T13:14:55;7.40;;;3.30;;
61435;SDS011;47304;47.456;19.160;2023-05-07T13:17:21;6.70;;;3.40;;
61435;SDS011;47304;47.456;19.160;2023-05-07T13:19:48;7.70;;;3.20;;
61435;SDS011;47304;47.456;19.160;2023-05-07T13:22:15;7.90;;;4.10;;
61435;SDS011;47304;47.456;19.160;2023-05-07T13:24:41;7.10;;;3.40;;
61435;SDS011;47304;47.456;19.160;2023-05-07T13:27:08;7.10;;;3.60;;
61435;SDS011;47304;47.456;19.160;2023-05-07T13:29:34;6.00;;;2.90;;
61435;SDS011;47304;47.456;19.160;2023-05-07T13:32:00;7.90;;;3.00;;
61435;SDS011;47304;47.456;19.160;2023-05-07T13:34:27;6.80;;;3.20;;
61435;SDS011;47304;47.456;19.160;2023-05-07T13:36:54;6.20;;;2.90;;
61435;SDS011;47304;47.456;19.160;2023-05-07T13:39:20;5.70;;;3.00;;
61435;SDS011;47304;47.456;19.160;2023-05-07T13:41:47;6.60;;;2.90;;
61435;SDS011;47304;47.456;19.160;2023-05-07T13:44:13;6.30;;;3.10;;
61435;SDS011;47304;47.456;19.160;2023-05-07T13:46:40;7.70;;;3.20;;
61435;SDS011;47304;47.456;19.160;2023-05-07T13:49:06;11.30;;;3.20;;
61435;SDS011;47304;47.456;19.160;2023-05-07T13:51:33;5.50;;;2.60;;
61435;SDS011;47304;47.456;19.160;2023-05-07T13:53:59;7.50;;;2.70;;
61435;SDS011;47304;47.456;19.160;2023-05-07T13:56:26;4.70;;;2.50;;
61435;SDS011;47304;47.456;19.160;2023-05-07T13:58:52;7.50;;;2.90;;
61435;SDS011;47304;47.456;19.160;2023-05-07T14:01:25;6.70;;;3.00;;
61435;SDS011;47304;47.456;19.160;2023-05-07T14:03:52;6.60;;;3.20;;
61435;SDS011;47304;47.456;19.160;2023-05-07T14:06:19;8.20;;;3.70;;
61435;SDS011;47304;47.456;19.160;2023-05-07T14:08:45;6.10;;;3.00;;
61435;SDS011;47304;47.456;19.160;2023-05-07T14:11:12;5.80;;;2.80;;
61435;SDS011;47304;47.456;19.160;2023-05-07T14:13:38;5.70;;;2.80;;
61435;SDS011;47304;47.456;19.160;2023-05-07T14:16:05;14.80;;;3.30;;
61435;SDS011;47304;47.456;19.160;2023-05-07T14:18:34;9.10;;;3.80;;
61435;SDS011;47304;47.456;19.160;2023-05-07T14:21:00;7.80;;;3.50;;
61435;SDS011;47304;47.456;19.160;2023-05-07T14:23:29;6.60;;;3.40;;
61435;SDS011;47304;47.456;19.160;2023-05-07T14:25:55;6.60;;;3.40;;
61435;SDS011;47304;47.456;19.160;2023-05-07T14:28:22;7.10;;;3.50;;
61435;SDS011;47304;47.456;19.160;2023-05-07T14:30:49;7.20;;;3.80;;
61435;SDS011;47304;47.456;19.160;2023-05-07T14:33:16;8.20;;;3.80;;
61435;SDS011;47304;47.456;19.160;2023-05-07T14:35:43;6.00;;;2.80;;
61435;SDS011;47304;47.456;19.160;2023-05-07T14:38:09;7.30;;;3.20;;
61435;SDS011;47304;47.456;19.160;2023-05-07T14:40:36;6.40;;;3.10;;
61435;SDS011;47304;47.456;19.160;2023-05-07T14:43:02;6.60;;;3.10;;
61435;SDS011;47304;47.456;19.160;2023-05-07T14:45:29;5.70;;;2.60;;